createdAt,value
2019-03-30T00:02:17.525Z,16.00
2019-03-30T00:04:44.770Z,16.00
2019-03-30T00:07:11.650Z,16.06
2019-03-30T00:09:38.884Z,16.05
2019-03-30T00:12:06.157Z,15.96
2019-03-30T00:14:33.419Z,15.86
2019-03-30T00:17:00.729Z,15.83
2019-03-30T00:19:34.802Z,15.71
2019-03-30T00:21:57.600Z,15.59
2019-03-30T00:24:24.496Z,15.53
2019-03-30T00:26:51.817Z,15.55
2019-03-30T00:29:18.823Z,15.56
2019-03-30T00:31:46.097Z,15.52
2019-03-30T00:34:12.964Z,15.46
2019-03-30T00:36:40.194Z,15.40
2019-03-30T00:39:07.461Z,15.32
2019-03-30T00:41:34.439Z,15.35
2019-03-30T00:44:02.684Z,15.41
2019-03-30T00:46:29.927Z,15.43
2019-03-30T00:48:57.177Z,15.48
2019-03-30T00:51:24.069Z,15.53
2019-03-30T00:53:51.386Z,15.55
2019-03-30T00:56:18.734Z,15.55
2019-03-30T00:58:45.988Z,15.54
2019-03-30T01:01:13.253Z,15.49
2019-03-30T01:03:41.834Z,15.40
2019-03-30T01:06:09.798Z,15.29
2019-03-30T01:08:36.687Z,15.27
2019-03-30T01:11:03.652Z,15.25
2019-03-30T01:13:30.526Z,15.25
2019-03-30T01:15:57.553Z,15.28
2019-03-30T01:18:24.837Z,15.27
2019-03-30T01:20:51.778Z,15.15
2019-03-30T01:23:18.687Z,15.04
2019-03-30T01:25:47.218Z,15.09
2019-03-30T01:28:14.543Z,15.12
2019-03-30T01:30:41.465Z,15.01
2019-03-30T01:33:08.505Z,14.98
2019-03-30T01:35:35.440Z,15.02
2019-03-30T01:38:02.370Z,15.06
2019-03-30T01:40:29.340Z,15.06
2019-03-30T01:42:56.303Z,15.10
2019-03-30T01:45:23.263Z,15.16
2019-03-30T01:47:50.636Z,15.17
2019-03-30T01:50:18.161Z,15.12
2019-03-30T01:52:45.550Z,14.98
2019-03-30T01:55:12.807Z,14.79
2019-03-30T01:57:39.785Z,14.68
2019-03-30T02:00:07.106Z,14.62
2019-03-30T02:02:34.041Z,14.54
2019-03-30T02:05:00.916Z,14.53
2019-03-30T02:07:27.857Z,14.45
2019-03-30T02:09:54.752Z,14.44
2019-03-30T02:12:21.739Z,14.43
2019-03-30T02:14:48.961Z,14.47
2019-03-30T02:17:16.129Z,14.45
2019-03-30T02:19:43.017Z,14.40
2019-03-30T02:22:09.973Z,14.49
2019-03-30T02:24:37.279Z,14.57
2019-03-30T02:27:04.236Z,14.60
2019-03-30T02:29:31.165Z,14.66
2019-03-30T02:31:58.038Z,14.68
2019-03-30T02:34:24.988Z,14.65
2019-03-30T02:36:51.965Z,14.72
2019-03-30T02:39:19.564Z,14.72
2019-03-30T02:41:46.425Z,14.71
2019-03-30T02:44:13.657Z,14.72
2019-03-30T02:46:40.552Z,14.63
2019-03-30T02:49:07.525Z,14.55
2019-03-30T02:51:34.815Z,14.59
2019-03-30T02:54:01.801Z,14.63
2019-03-30T02:56:29.750Z,14.69
2019-03-30T02:58:57.912Z,14.73
2019-03-30T03:01:24.856Z,14.71
2019-03-30T03:03:51.813Z,14.73
2019-03-30T03:06:18.827Z,14.73
2019-03-30T03:08:46.117Z,14.70
2019-03-30T03:11:13.440Z,14.68
2019-03-30T03:13:40.700Z,14.64
2019-03-30T03:16:07.615Z,14.61
2019-03-30T03:18:34.563Z,14.50
2019-03-30T03:21:07.908Z,14.35
2019-03-30T03:23:30.419Z,14.36
2019-03-30T03:25:57.570Z,14.38
2019-03-30T03:28:24.533Z,14.43
2019-03-30T03:30:51.510Z,14.45
2019-03-30T03:33:18.727Z,14.44
2019-03-30T03:35:45.962Z,14.43
2019-03-30T03:38:12.926Z,14.48
2019-03-30T03:40:39.883Z,14.53
2019-03-30T03:43:06.855Z,14.51
2019-03-30T03:45:34.077Z,14.49
2019-03-30T03:48:01.067Z,14.41
2019-03-30T03:50:28.358Z,14.33
2019-03-30T03:52:55.336Z,14.27
2019-03-30T03:55:22.287Z,14.20
2019-03-30T03:57:49.263Z,14.13
2019-03-30T04:00:16.186Z,14.09
2019-03-30T04:02:43.125Z,14.06
2019-03-30T04:05:10.286Z,14.04
2019-03-30T04:07:37.247Z,14.06
2019-03-30T04:10:04.225Z,14.06
2019-03-30T04:12:31.168Z,14.10
2019-03-30T04:14:58.189Z,14.08
2019-03-30T04:17:25.397Z,14.02
2019-03-30T04:19:52.381Z,13.96
2019-03-30T04:22:19.257Z,13.88
2019-03-30T04:24:46.243Z,13.87
2019-03-30T04:27:13.480Z,13.91
2019-03-30T04:29:40.471Z,13.93
2019-03-30T04:32:07.759Z,13.88
2019-03-30T04:34:35.052Z,13.79
2019-03-30T04:37:02.311Z,13.76
2019-03-30T04:39:29.272Z,13.80
2019-03-30T04:41:56.252Z,13.85
2019-03-30T04:44:23.270Z,13.84
2019-03-30T04:46:51.219Z,13.79
2019-03-30T04:49:18.267Z,13.73
2019-03-30T04:51:56.968Z,13.68
2019-03-30T04:54:13.904Z,13.66
2019-03-30T04:56:41.207Z,13.62
2019-03-30T04:59:08.474Z,13.63
2019-03-30T05:01:35.422Z,13.66
2019-03-30T05:04:02.324Z,13.66
2019-03-30T05:06:30.340Z,13.62
2019-03-30T05:08:57.271Z,13.60
2019-03-30T05:11:24.533Z,13.64
2019-03-30T05:13:51.403Z,13.71
2019-03-30T05:16:18.296Z,13.74
2019-03-30T05:18:45.576Z,13.77
2019-03-30T05:21:12.830Z,13.85
2019-03-30T05:23:40.087Z,13.77
2019-03-30T05:26:07.320Z,13.69
2019-03-30T05:28:34.193Z,13.70
2019-03-30T05:31:01.090Z,13.86
2019-03-30T05:33:28.373Z,13.99
2019-03-30T05:35:56.318Z,14.02
2019-03-30T05:38:23.182Z,14.00
2019-03-30T05:40:50.065Z,13.98
2019-03-30T05:43:17.022Z,13.90
2019-03-30T05:45:43.961Z,13.97
2019-03-30T05:48:11.210Z,13.97
2019-03-30T05:50:38.524Z,14.02
2019-03-30T05:53:05.673Z,14.14
2019-03-30T05:55:32.933Z,14.31
2019-03-30T05:57:59.917Z,14.46
2019-03-30T06:00:27.265Z,14.53
2019-03-30T06:02:54.273Z,14.56
2019-03-30T06:05:21.526Z,14.60
2019-03-30T06:07:48.397Z,14.74
2019-03-30T06:10:15.630Z,14.95
2019-03-30T06:12:42.601Z,15.18
2019-03-30T06:15:09.544Z,15.38
2019-03-30T06:17:36.494Z,15.54
2019-03-30T06:20:03.421Z,15.67
2019-03-30T06:22:40.285Z,15.74
2019-03-30T06:24:59.207Z,15.89
2019-03-30T06:27:26.153Z,16.03
2019-03-30T06:29:53.341Z,16.16
2019-03-30T06:32:20.269Z,16.27
2019-03-30T06:34:47.217Z,16.48
2019-03-30T06:37:14.184Z,16.64
2019-03-30T06:39:41.537Z,16.79
2019-03-30T06:42:08.505Z,16.90
2019-03-30T06:44:35.818Z,16.99
2019-03-30T06:47:03.154Z,17.09
2019-03-30T06:49:30.132Z,17.20
2019-03-30T06:51:57.179Z,17.33
2019-03-30T06:54:24.149Z,17.58
2019-03-30T06:56:51.236Z,17.73
2019-03-30T06:59:18.189Z,17.88
2019-03-30T07:01:45.134Z,18.11
2019-03-30T07:04:12.281Z,18.38
2019-03-30T07:06:39.208Z,18.62
2019-03-30T07:09:06.610Z,18.81
2019-03-30T07:11:33.761Z,18.98
2019-03-30T07:14:00.947Z,19.14
2019-03-30T07:16:27.945Z,19.20
2019-03-30T07:18:54.987Z,19.30
2019-03-30T07:21:21.968Z,19.45
2019-03-30T07:23:48.964Z,19.68
2019-03-30T07:26:15.830Z,19.88
2019-03-30T07:28:42.725Z,20.03
2019-03-30T07:31:09.955Z,20.22
2019-03-30T07:33:36.925Z,20.47
2019-03-30T07:36:05.270Z,20.75
2019-03-30T07:38:32.417Z,20.90
2019-03-30T07:40:59.569Z,21.11
2019-03-30T07:43:26.557Z,21.27
2019-03-30T07:45:53.552Z,21.50
2019-03-30T07:48:20.717Z,21.73
2019-03-30T07:50:47.865Z,21.96
2019-03-30T07:53:25.802Z,22.11
2019-03-30T07:55:43.332Z,22.31
2019-03-30T07:58:10.729Z,22.55
2019-03-30T08:00:38.060Z,22.86
2019-03-30T08:03:05.010Z,23.18
2019-03-30T08:05:32.312Z,23.54
2019-03-30T08:07:59.285Z,23.91
2019-03-30T08:10:26.205Z,24.16
2019-03-30T08:12:53.450Z,24.18
2019-03-30T08:15:20.417Z,24.02
2019-03-30T08:17:47.319Z,23.59
2019-03-30T08:20:14.486Z,23.51
2019-03-30T08:22:41.655Z,23.16
2019-03-30T08:25:09.005Z,22.82
2019-03-30T08:27:35.890Z,22.45
2019-03-30T08:30:03.192Z,22.19
2019-03-30T08:32:30.092Z,21.97
2019-03-30T08:34:57.298Z,21.90
2019-03-30T08:37:24.273Z,21.84
2019-03-30T08:39:51.597Z,21.75
2019-03-30T08:42:18.534Z,21.70
2019-03-30T08:44:45.429Z,21.70
2019-03-30T08:47:12.671Z,21.68
2019-03-30T08:49:39.616Z,21.68
2019-03-30T08:52:06.775Z,21.71
2019-03-30T08:54:33.980Z,21.74
2019-03-30T08:57:00.869Z,21.77
2019-03-30T08:59:27.805Z,21.76
2019-03-30T09:01:54.705Z,21.79
2019-03-30T09:04:21.663Z,21.80
2019-03-30T09:06:48.582Z,21.79
2019-03-30T09:09:15.480Z,21.78
2019-03-30T09:11:43.604Z,21.72
2019-03-30T09:14:10.836Z,21.71
2019-03-30T09:16:37.826Z,21.72
2019-03-30T09:19:06.316Z,21.73
2019-03-30T09:21:33.390Z,21.81
2019-03-30T09:24:09.714Z,21.89
2019-03-30T09:26:29.309Z,21.98
2019-03-30T09:28:56.263Z,22.02
2019-03-30T09:31:23.138Z,22.08
2019-03-30T09:33:50.339Z,22.15
2019-03-30T09:36:17.585Z,22.20
2019-03-30T09:38:44.893Z,22.19
2019-03-30T09:41:12.453Z,22.15
2019-03-30T09:43:39.756Z,22.05
2019-03-30T09:46:07.222Z,21.97
2019-03-30T09:48:34.573Z,21.96
2019-03-30T09:51:01.722Z,22.03
2019-03-30T09:53:28.873Z,22.13
2019-03-30T09:55:55.753Z,22.21
2019-03-30T09:58:23.097Z,22.26
2019-03-30T10:00:50.052Z,22.28
2019-03-30T10:03:17.380Z,22.27
2019-03-30T10:05:45.740Z,22.26
2019-03-30T10:08:12.994Z,22.25
2019-03-30T10:10:40.593Z,22.25
2019-03-30T10:13:07.936Z,22.25
2019-03-30T10:15:35.220Z,22.25
2019-03-30T10:18:02.535Z,22.24
2019-03-30T10:20:29.766Z,22.25
2019-03-30T10:22:56.958Z,22.26
2019-03-30T10:25:24.209Z,22.26
2019-03-30T10:27:51.144Z,22.25
2019-03-30T10:30:18.116Z,22.27
2019-03-30T10:32:44.993Z,22.30
2019-03-30T10:35:11.938Z,22.31
2019-03-30T10:37:38.823Z,22.29
2019-03-30T10:40:05.808Z,22.23
2019-03-30T10:42:32.718Z,22.25
2019-03-30T10:44:59.697Z,22.27
2019-03-30T10:47:26.558Z,22.29
2019-03-30T10:49:53.468Z,22.32
2019-03-30T10:52:20.413Z,22.35
2019-03-30T10:54:52.983Z,22.37
2019-03-30T10:57:16.281Z,22.40
2019-03-30T10:59:43.576Z,22.40
2019-03-30T11:02:11.842Z,22.42
2019-03-30T11:04:38.748Z,22.42
2019-03-30T11:07:06.070Z,22.43
2019-03-30T11:09:33.608Z,22.45
2019-03-30T11:12:00.966Z,22.43
2019-03-30T11:14:28.247Z,22.43
2019-03-30T11:16:55.461Z,22.46
2019-03-30T11:19:22.340Z,22.48
2019-03-30T11:21:49.284Z,22.48
2019-03-30T11:24:16.150Z,22.47
2019-03-30T11:26:43.073Z,22.47
2019-03-30T11:29:09.954Z,22.38
2019-03-30T11:31:36.864Z,22.29
2019-03-30T11:34:05.507Z,22.22
2019-03-30T11:36:32.892Z,22.19
2019-03-30T11:38:59.927Z,22.17
2019-03-30T11:41:26.838Z,22.16
2019-03-30T11:43:53.775Z,22.18
2019-03-30T11:46:20.739Z,22.22
2019-03-30T11:48:47.674Z,22.23
2019-03-30T11:51:14.851Z,22.23
2019-03-30T11:53:42.130Z,22.23
2019-03-30T11:56:09.457Z,22.22
2019-03-30T11:58:36.430Z,22.23
2019-03-30T12:01:03.670Z,22.27
2019-03-30T12:03:30.644Z,22.28
2019-03-30T12:05:57.542Z,22.31
2019-03-30T12:08:24.808Z,22.34
2019-03-30T12:10:51.992Z,22.35
2019-03-30T12:13:18.904Z,22.34
2019-03-30T12:15:46.166Z,22.36
2019-03-30T12:18:13.141Z,22.37
2019-03-30T12:20:40.007Z,22.38
2019-03-30T12:23:06.908Z,22.41
2019-03-30T12:25:35.985Z,22.44
2019-03-30T12:28:03.029Z,22.42
2019-03-30T12:30:29.915Z,22.41
2019-03-30T12:32:57.134Z,22.44
2019-03-30T12:35:25.248Z,22.44
2019-03-30T12:37:52.233Z,22.42
2019-03-30T12:40:19.261Z,22.45
2019-03-30T12:42:47.681Z,22.46
2019-03-30T12:45:14.548Z,22.49
2019-03-30T12:47:41.781Z,22.51
2019-03-30T12:50:08.678Z,22.53
2019-03-30T12:52:35.998Z,22.56
2019-03-30T12:55:02.974Z,22.59
2019-03-30T12:57:29.917Z,22.60
2019-03-30T13:02:25.713Z,22.62
2019-03-30T13:04:52.726Z,22.64
2019-03-30T13:07:19.670Z,22.66
2019-03-30T13:09:46.838Z,22.69
2019-03-30T13:12:13.713Z,22.73
2019-03-30T13:14:40.581Z,22.80
2019-03-30T13:17:07.560Z,22.88
2019-03-30T13:19:34.444Z,22.91
2019-03-30T13:22:01.984Z,22.96
2019-03-30T13:24:28.856Z,22.99
2019-03-30T13:26:56.096Z,22.97
2019-03-30T13:29:25.988Z,22.93
2019-03-30T13:31:53.252Z,22.84
2019-03-30T13:34:20.257Z,22.84
2019-03-30T13:36:47.549Z,22.87
2019-03-30T13:39:14.425Z,22.87
2019-03-30T13:41:41.420Z,22.89
2019-03-30T13:44:08.374Z,22.90
2019-03-30T13:46:35.305Z,22.91
2019-03-30T13:49:02.235Z,22.92
2019-03-30T13:51:29.117Z,22.91
2019-03-30T13:53:56.006Z,22.93
2019-03-30T13:56:22.899Z,22.93
2019-03-30T13:58:50.270Z,22.95
2019-03-30T14:01:17.214Z,22.98
2019-03-30T14:03:44.358Z,23.00
2019-03-30T14:06:11.613Z,23.03
2019-03-30T14:08:38.802Z,23.09
2019-03-30T14:11:05.776Z,23.15
2019-03-30T14:13:33.087Z,23.17
2019-03-30T14:16:00.410Z,23.19
2019-03-30T14:18:27.305Z,23.24
2019-03-30T14:20:54.523Z,23.29
2019-03-30T14:23:21.877Z,23.32
2019-03-30T14:25:49.011Z,23.33
2019-03-30T14:28:16.271Z,23.33
2019-03-30T14:30:43.144Z,23.34
2019-03-30T14:33:10.332Z,23.34
2019-03-30T14:35:37.652Z,23.36
2019-03-30T14:38:04.602Z,23.38
2019-03-30T14:40:31.499Z,23.38
2019-03-30T14:42:58.653Z,23.39
2019-03-30T14:45:25.921Z,23.41
2019-03-30T14:47:53.181Z,23.40
2019-03-30T14:50:20.163Z,23.41
2019-03-30T14:52:47.477Z,23.42
2019-03-30T14:55:14.818Z,23.44
2019-03-30T14:57:41.973Z,23.45
2019-03-30T15:00:08.870Z,23.45
2019-03-30T15:02:36.281Z,23.46
2019-03-30T15:05:03.218Z,23.46
2019-03-30T15:07:30.395Z,23.46
2019-03-30T15:09:57.621Z,23.46
2019-03-30T15:12:25.582Z,23.49
2019-03-30T15:14:53.085Z,23.48
2019-03-30T15:17:19.978Z,23.49
2019-03-30T15:19:46.928Z,23.51
2019-03-30T15:22:13.868Z,23.51
2019-03-30T15:24:40.793Z,23.52
2019-03-30T15:27:09.018Z,23.53
2019-03-30T15:29:36.286Z,23.54
2019-03-30T15:32:03.629Z,23.53
2019-03-30T15:34:30.882Z,23.52
2019-03-30T15:36:58.358Z,23.53
2019-03-30T15:39:25.235Z,23.54
2019-03-30T15:41:52.121Z,23.54
2019-03-30T15:44:19.481Z,23.54
2019-03-30T15:46:46.739Z,23.57
2019-03-30T15:49:13.654Z,23.57
2019-03-30T15:51:40.597Z,23.59
2019-03-30T15:54:07.469Z,23.59
2019-03-30T15:56:34.365Z,23.59
2019-03-30T15:59:01.348Z,23.61
2019-03-30T16:01:28.315Z,23.62
2019-03-30T16:03:55.563Z,23.64
2019-03-30T16:06:22.724Z,23.64
2019-03-30T16:08:49.662Z,23.63
2019-03-30T16:11:16.918Z,23.63
2019-03-30T16:13:43.894Z,23.65
2019-03-30T16:16:10.889Z,23.65
2019-03-30T16:18:38.058Z,23.66
2019-03-30T16:21:05.304Z,23.68
2019-03-30T16:23:32.614Z,23.69
2019-03-30T16:25:59.908Z,23.71
2019-03-30T16:28:26.873Z,23.70
2019-03-30T16:30:53.853Z,23.68
2019-03-30T16:33:20.729Z,23.69
2019-03-30T16:35:48.120Z,23.70
2019-03-30T16:38:15.004Z,23.68
2019-03-30T16:40:41.889Z,23.67
2019-03-30T16:43:08.831Z,23.67
2019-03-30T16:45:35.703Z,23.66
2019-03-30T16:48:03.024Z,23.64
2019-03-30T16:50:29.917Z,23.63
2019-03-30T16:52:57.229Z,23.61
2019-03-30T16:55:24.127Z,23.59
2019-03-30T16:57:51.013Z,23.57
2019-03-30T17:00:19.057Z,23.56
2019-03-30T17:02:46.015Z,23.57
2019-03-30T17:05:12.977Z,23.53
2019-03-30T17:07:39.975Z,23.51
2019-03-30T17:10:06.921Z,23.51
2019-03-30T17:12:34.227Z,23.52
2019-03-30T17:15:01.491Z,23.49
2019-03-30T17:17:29.368Z,23.48
2019-03-30T17:19:56.605Z,23.45
2019-03-30T17:22:23.961Z,23.39
2019-03-30T17:24:50.833Z,23.35
2019-03-30T17:27:18.060Z,23.32
2019-03-30T17:29:45.092Z,23.25
2019-03-30T17:32:12.062Z,23.20
2019-03-30T17:34:39.315Z,23.15
2019-03-30T17:37:06.263Z,23.12
2019-03-30T17:39:33.521Z,23.07
2019-03-30T17:42:00.721Z,23.02
2019-03-30T17:44:27.612Z,23.00
2019-03-30T17:46:54.592Z,22.96
2019-03-30T17:49:21.553Z,22.94
2019-03-30T17:51:48.417Z,22.92
2019-03-30T17:54:15.328Z,22.89
2019-03-30T17:56:42.299Z,22.85
2019-03-30T17:59:09.257Z,22.81
2019-03-30T18:01:36.534Z,22.77
2019-03-30T18:04:03.774Z,22.70
2019-03-30T18:06:30.645Z,22.65
2019-03-30T18:08:57.580Z,22.59
2019-03-30T18:11:24.526Z,22.53
2019-03-30T18:13:51.494Z,22.49
2019-03-30T18:16:18.454Z,22.44
2019-03-30T18:18:45.679Z,22.40
2019-03-30T18:21:12.664Z,22.35
2019-03-30T18:23:39.653Z,22.32
2019-03-30T18:26:06.843Z,22.29
2019-03-30T18:28:34.147Z,22.26
2019-03-30T18:31:01.647Z,22.23
2019-03-30T18:33:28.985Z,22.20
2019-03-30T18:35:55.910Z,22.17
2019-03-30T18:38:22.857Z,22.13
2019-03-30T18:40:50.048Z,22.11
2019-03-30T18:43:17.259Z,22.08
2019-03-30T18:45:44.514Z,22.02
2019-03-30T18:48:11.994Z,22.00
2019-03-30T18:50:39.232Z,21.98
2019-03-30T18:53:06.194Z,21.95
2019-03-30T18:55:33.417Z,21.94
2019-03-30T18:58:00.585Z,21.90
2019-03-30T19:00:28.143Z,21.88
2019-03-30T19:02:55.176Z,21.88
2019-03-30T19:05:22.433Z,21.82
2019-03-30T19:07:49.410Z,21.82
2019-03-30T19:10:16.628Z,21.84
2019-03-30T19:12:43.503Z,21.85
2019-03-30T19:15:10.751Z,21.83
2019-03-30T19:17:37.625Z,21.83
2019-03-30T19:20:04.950Z,21.80
2019-03-30T19:22:31.931Z,21.76
2019-03-30T19:24:58.859Z,21.70
2019-03-30T19:27:25.834Z,21.67
2019-03-30T19:29:53.129Z,21.63
2019-03-30T19:32:20.066Z,21.59
2019-03-30T19:34:47.205Z,21.59
2019-03-30T19:37:14.479Z,21.63
2019-03-30T19:39:41.433Z,21.67
2019-03-30T19:42:08.669Z,21.67
2019-03-30T19:44:35.939Z,21.70
2019-03-30T19:47:02.874Z,21.69
2019-03-30T19:49:29.741Z,21.72
2019-03-30T19:51:56.978Z,21.71
2019-03-30T19:54:24.317Z,21.69
2019-03-30T19:56:51.285Z,21.66
2019-03-30T19:59:18.222Z,21.63
2019-03-30T20:01:45.161Z,21.59
2019-03-30T20:04:12.031Z,21.55
2019-03-30T20:06:39.253Z,21.50
2019-03-30T20:09:06.513Z,21.48
2019-03-30T20:11:35.021Z,21.47
2019-03-30T20:14:01.981Z,21.45
2019-03-30T20:16:29.283Z,21.44
2019-03-30T20:19:11.579Z,21.44
2019-03-30T20:21:24.811Z,21.44
2019-03-30T20:23:51.965Z,21.41
2019-03-30T20:26:18.933Z,21.40
2019-03-30T20:28:45.895Z,21.39
2019-03-30T20:31:12.832Z,21.36
2019-03-30T20:33:39.794Z,21.33
2019-03-30T20:36:09.449Z,21.29
2019-03-30T20:38:36.403Z,21.20
2019-03-30T20:41:03.375Z,21.08
2019-03-30T20:43:30.714Z,20.98
2019-03-30T20:45:58.802Z,20.92
2019-03-30T20:48:25.668Z,20.82
2019-03-30T20:50:52.896Z,20.78
2019-03-30T20:53:19.792Z,20.75
2019-03-30T20:55:47.076Z,20.72
2019-03-30T20:58:14.315Z,20.66
2019-03-30T21:00:41.465Z,20.63
2019-03-30T21:03:08.623Z,20.57
2019-03-30T21:05:35.518Z,20.51
2019-03-30T21:08:03.451Z,20.44
2019-03-30T21:10:30.422Z,20.44
2019-03-30T21:12:57.387Z,20.44
2019-03-30T21:15:24.280Z,20.35
2019-03-30T21:17:51.239Z,20.34
2019-03-30T21:20:18.480Z,20.31
2019-03-30T21:22:45.442Z,20.26
2019-03-30T21:25:12.662Z,20.27
2019-03-30T21:27:39.545Z,20.30
2019-03-30T21:30:06.778Z,20.29
2019-03-30T21:32:34.742Z,20.25
2019-03-30T21:35:01.993Z,20.22
2019-03-30T21:37:29.993Z,20.19
2019-03-30T21:39:56.865Z,20.15
2019-03-30T21:42:23.757Z,20.08
2019-03-30T21:44:50.728Z,20.06
2019-03-30T21:47:17.688Z,19.99
2019-03-30T21:49:44.999Z,19.93
2019-03-30T21:52:12.238Z,19.85
2019-03-30T21:54:39.502Z,19.75
2019-03-30T21:57:06.759Z,19.72
2019-03-30T21:59:33.753Z,19.70
2019-03-30T22:02:00.708Z,19.72
2019-03-30T22:04:27.736Z,19.72
2019-03-30T22:06:54.633Z,19.62
2019-03-30T22:09:21.524Z,19.59
2019-03-30T22:11:49.144Z,19.62
2019-03-30T22:14:16.014Z,19.58
2019-03-30T22:16:42.961Z,19.42
2019-03-30T22:19:09.907Z,19.42
2019-03-30T22:21:36.767Z,19.42
2019-03-30T22:24:04.288Z,19.33
2019-03-30T22:26:31.258Z,19.19
2019-03-30T22:28:58.210Z,19.08
2019-03-30T22:31:25.144Z,19.05
2019-03-30T22:33:52.031Z,19.03
2019-03-30T22:36:19.321Z,19.05
2019-03-30T22:38:46.316Z,19.12
2019-03-30T22:41:13.198Z,19.12
2019-03-30T22:43:40.207Z,19.11
2019-03-30T22:46:07.751Z,19.07
2019-03-30T22:48:34.905Z,18.96
2019-03-30T22:51:02.226Z,18.89
2019-03-30T22:53:30.513Z,18.80
2019-03-30T22:55:57.421Z,18.84
2019-03-30T22:58:24.289Z,18.89
2019-03-30T23:00:51.178Z,18.94
2019-03-30T23:03:18.702Z,18.99
2019-03-30T23:05:46.056Z,19.01
2019-03-30T23:08:13.035Z,18.97
2019-03-30T23:10:39.902Z,18.98
2019-03-30T23:13:07.093Z,18.94
2019-03-30T23:15:34.340Z,18.94
2019-03-30T23:18:02.309Z,18.90
2019-03-30T23:20:29.301Z,18.94
2019-03-30T23:22:56.238Z,18.93
2019-03-30T23:25:23.124Z,18.92
2019-03-30T23:27:50.022Z,18.88
2019-03-30T23:30:16.981Z,18.86
2019-03-30T23:32:43.962Z,18.87
2019-03-30T23:35:10.835Z,18.82
2019-03-30T23:37:37.704Z,18.81
2019-03-30T23:40:04.581Z,18.82
2019-03-30T23:42:31.769Z,18.80
2019-03-30T23:44:58.655Z,18.79
2019-03-30T23:47:25.656Z,18.75
2019-03-30T23:49:52.532Z,18.69
2019-03-30T23:52:19.482Z,18.67
2019-03-30T23:54:46.437Z,18.73
2019-03-30T23:57:13.388Z,18.76
2019-03-30T23:59:40.695Z,18.72
